Ana Sayfa
METAR-TAF:

METAR-TAF

Havaalanları :

Rexburg-Madison County Airport

Rexburg, Idaho, Amerika Birleşik Devletleri

Enlem: 43-49-54N, Boylam: 111-48-22W, yükseklik: 1481 m

Güncel hava durumu gözlemi

Rapor saat 20:53 UTC de 34 dakika önce yapıldı.
Rüzgar güneybatıdan 17 kt ve 33 kt'a kadar ani rüzgarlar
Sıcaklık 19°C
Nem 30%
Basınç 1016 hPa
Görüş mesafesi: 16.1 km
8500 ft yükseklikte parçalı bulutlu
11000 ft yükseklikte parçalı çok bulutlu

METAR: KRXE 212053Z AUTO 23017G33KT 10SM SCT085 BKN110 19/01 A2999 RMK AO2 PK WND 19036/2024 SLP145 T01890006 58032

Saat: 15:27 (21:27 UTC)


TAF: eksik

4.000'den fazla havaalanı için hava durumu gözlemleri ve tahminleri (METAR ve TAF raporları).

Kullanılabilir istasyonlar harita üzerinde sarı ve kırmızı noktalarla gösterilir.

İstasyonun adını görmek için fareyi noktanın üzerinde gezdirin.

Sonrasında hava gözlem ve tahminlerini görmek için tıklayın.

Haritayı değiştirmek için: yaklaştırmak için siyah artı işaretli yeşil düğmeye ve uzaklaştırmak için de eksi işaretli düğmeye hızla tıklayın; bitişik haritalar için yeşil okları kullanın.


METAR-TAF: